Time;durP1;ratioP1;P1;durP2;ratioP2;P2;SDS_P1;SDS_P2;PMS_P1;PMS_P2;Temp;Humidity;BMP_temperature;BMP_pressure;BME280_temperature;BME280_humidity;BME280_pressure;Samples;Min_cycle;Max_cycle;Signal;HPM_P1;HPM_P2
2021/05/11 00:01:00;;;;;;;;;;;22.00;56.30;;;;;;5054851;28;19967;-78
2021/05/11 00:03:25;;;;;;;;;;;22.00;56.30;;;;;;5053916;28;19924;-77
2021/05/11 00:05:51;;;;;;;;;;;22.00;56.30;;;;;;5036472;28;19921;-77
2021/05/11 00:08:16;;;;;;;;;;;22.00;56.30;;;;;;5052906;28;19917;-77
2021/05/11 00:10:42;;;;;;;;;;;22.00;56.30;;;;;;5033659;28;20389;-77
2021/05/11 00:13:23;;;;;;;;;;;22.00;56.30;;;;;;5042877;28;19917;-77
2021/05/11 00:15:48;;;;;;;;;;;21.90;56.30;;;;;;5040324;28;19916;-77
2021/05/11 00:18:17;;;;;;;;;;;22.00;56.40;;;;;;5036468;28;20012;-78
2021/05/11 00:20:42;;;;;;;;;;;21.90;56.40;;;;;;5047590;28;19917;-77
2021/05/11 00:23:08;;;;;;;;;;;22.00;56.40;;;;;;5034898;28;19927;-77
2021/05/11 00:25:34;;;;;;;;;;;22.00;56.40;;;;;;5037086;28;19924;-77
2021/05/11 00:28:04;;;;;;;;;;;22.00;56.30;;;;;;5038433;28;19960;-77
2021/05/11 00:30:30;;;;;;;;;;;22.00;56.40;;;;;;5055815;28;20342;-78
2021/05/11 00:32:56;;;;;;;;;;;22.00;56.40;;;;;;5039843;28;19923;-78
2021/05/11 00:35:26;;;;;;;;;;;22.00;56.40;;;;;;5040081;28;20388;-78
2021/05/11 00:37:51;;;;;;;;;;;22.00;56.40;;;;;;5048711;28;19999;-77
2021/05/11 00:40:17;;;;;;;;;;;21.90;56.40;;;;;;5046097;28;20028;-77
2021/05/11 00:42:43;;;;;;;;;;;21.90;56.50;;;;;;5047845;28;20419;-77
2021/05/11 00:45:08;;;;;;;;;;;21.90;56.50;;;;;;5034172;28;19921;-77
2021/05/11 00:47:34;;;;;;;;;;;21.90;56.50;;;;;;5053269;28;19969;-78
2021/05/11 00:50:00;;;;;;;;;;;21.90;56.50;;;;;;5055270;28;19920;-77
2021/05/11 00:52:26;;;;;;;;;;;21.90;56.50;;;;;;5056497;28;19917;-77
2021/05/11 00:54:51;;;;;;;;;;;21.90;56.50;;;;;;5040704;28;20058;-77
2021/05/11 00:57:17;;;;;;;;;;;21.90;56.50;;;;;;5054037;28;20347;-78
2021/05/11 00:59:43;;;;;;;;;;;21.90;56.60;;;;;;5059133;28;19912;-77
2021/05/11 01:02:09;;;;;;;;;;;21.90;56.60;;;;;;5053036;28;19924;-77
2021/05/11 01:04:35;;;;;;;;;;;21.90;56.60;;;;;;5039475;28;20374;-77
2021/05/11 01:07:01;;;;;;;;;;;21.90;56.60;;;;;;5037439;28;19924;-78
2021/05/11 01:09:27;;;;;;;;;;;21.80;56.60;;;;;;5050283;28;19944;-77
2021/05/11 01:11:53;;;;;;;;;;;21.90;56.60;;;;;;5055094;28;19921;-77
2021/05/11 01:14:19;;;;;;;;;;;21.90;56.60;;;;;;5055615;28;20006;-77
2021/05/11 01:16:48;;;;;;;;;;;21.90;56.60;;;;;;5044155;28;20009;-77
2021/05/11 01:19:50;;;;;;;;;;;21.90;56.60;;;;;;5034428;28;19912;-77
2021/05/11 01:22:27;;;;;;;;;;;21.90;56.70;;;;;;5044088;28;20358;-77
2021/05/11 01:25:13;;;;;;;;;;;21.80;56.70;;;;;;5047351;28;20297;-77
2021/05/11 02:24:42;;;;;;;;;;;21.80;56.90;;;;;;5054265;28;19961;-77
2021/05/11 02:27:08;;;;;;;;;;;21.80;56.90;;;;;;5055679;28;19924;-76
2021/05/11 02:29:45;;;;;;;;;;;21.80;56.90;;;;;;5032010;28;19917;-77
2021/05/11 02:32:12;;;;;;;;;;;21.80;57.00;;;;;;5054561;28;19913;-79
2021/05/11 02:34:38;;;;;;;;;;;21.80;56.90;;;;;;5040385;28;19916;-77
2021/05/11 02:37:03;;;;;;;;;;;21.80;56.90;;;;;;5051036;28;19921;-77
2021/05/11 02:39:29;;;;;;;;;;;21.80;56.90;;;;;;5050393;28;19920;-77
2021/05/11 02:41:54;;;;;;;;;;;21.80;56.90;;;;;;5052018;28;20247;-77
2021/05/11 02:44:29;;;;;;;;;;;21.80;57.00;;;;;;5046727;28;19960;-77
2021/05/11 02:46:54;;;;;;;;;;;21.80;57.00;;;;;;5046957;28;19971;-77
2021/05/11 02:49:22;;;;;;;;;;;21.80;57.00;;;;;;5036482;28;19913;-77
2021/05/11 02:51:48;;;;;;;;;;;21.80;57.00;;;;;;5033632;28;19912;-78
2021/05/11 02:54:19;;;;;;;;;;;21.80;57.00;;;;;;5054463;28;19913;-77
2021/05/11 02:56:44;;;;;;;;;;;21.80;57.00;;;;;;5037777;28;19963;-76
2021/05/11 02:59:12;;;;;;;;;;;21.80;57.10;;;;;;5053392;28;19912;-77
2021/05/11 03:01:38;;;;;;;;;;;21.80;57.10;;;;;;5053201;28;19917;-77
2021/05/11 03:04:03;;;;;;;;;;;21.70;57.00;;;;;;5052422;28;19917;-77
2021/05/11 03:06:29;;;;;;;;;;;21.80;57.10;;;;;;5054477;28;19970;-77
2021/05/11 03:08:54;;;;;;;;;;;21.80;57.00;;;;;;5055177;28;19935;-78
2021/05/11 03:11:20;;;;;;;;;;;21.80;57.00;;;;;;5058387;28;20392;-77
2021/05/11 03:13:46;;;;;;;;;;;21.80;57.00;;;;;;5055612;28;19920;-77
2021/05/11 03:16:11;;;;;;;;;;;21.80;57.10;;;;;;5037637;28;19921;-77
2021/05/11 03:18:42;;;;;;;;;;;21.70;57.00;;;;;;5051265;28;20425;-77
2021/05/11 03:21:08;;;;;;;;;;;21.80;57.10;;;;;;5055148;28;20273;-77
2021/05/11 03:23:33;;;;;;;;;;;21.70;57.10;;;;;;5044732;28;19920;-77
2021/05/11 03:25:59;;;;;;;;;;;21.80;57.10;;;;;;5052549;28;19972;-77
2021/05/11 03:28:24;;;;;;;;;;;21.80;57.20;;;;;;5059839;28;20415;-77
2021/05/11 03:30:50;;;;;;;;;;;21.70;57.20;;;;;;5044315;28;19913;-79
2021/05/11 03:33:15;;;;;;;;;;;21.70;57.20;;;;;;5040333;28;19921;-78
2021/05/11 03:35:41;;;;;;;;;;;21.70;57.20;;;;;;5052693;28;20018;-78
2021/05/11 03:38:07;;;;;;;;;;;21.70;57.30;;;;;;5041069;28;19916;-77
2021/05/11 03:40:32;;;;;;;;;;;21.70;57.30;;;;;;5040324;28;19919;-77
2021/05/11 03:43:04;;;;;;;;;;;21.70;57.30;;;;;;5056561;28;19920;-78
2021/05/11 03:45:35;;;;;;;;;;;21.70;57.30;;;;;;5037156;28;19917;-77
2021/05/11 03:48:01;;;;;;;;;;;21.70;57.30;;;;;;5054572;28;19986;-77
2021/05/11 03:50:26;;;;;;;;;;;21.70;57.30;;;;;;5060183;28;19966;-77
2021/05/11 03:52:52;;;;;;;;;;;21.70;57.40;;;;;;5056473;28;20400;-77
2021/05/11 03:55:17;;;;;;;;;;;21.70;57.30;;;;;;5037715;28;20390;-77
2021/05/11 03:57:43;;;;;;;;;;;21.70;57.40;;;;;;5036756;28;19919;-77
2021/05/11 04:00:08;;;;;;;;;;;21.70;57.30;;;;;;5044450;28;20274;-77
2021/05/11 04:02:34;;;;;;;;;;;21.70;57.40;;;;;;5030224;28;19952;-77
2021/05/11 04:05:07;;;;;;;;;;;21.70;57.40;;;;;;5063447;28;19981;-77
2021/05/11 04:07:33;;;;;;;;;;;21.70;57.40;;;;;;5057270;28;19916;-77
2021/05/11 04:10:01;;;;;;;;;;;21.70;57.40;;;;;;5048561;28;19932;-77
2021/05/11 04:12:39;;;;;;;;;;;21.70;57.40;;;;;;5051661;28;20370;-77
2021/05/11 04:17:48;;;;;;;;;;;21.70;57.40;;;;;;5045457;28;20070;-77
2021/05/11 04:20:19;;;;;;;;;;;21.70;57.40;;;;;;5059371;28;19955;-77
2021/05/11 04:22:44;;;;;;;;;;;21.70;57.50;;;;;;5049827;28;19917;-78
2021/05/11 04:25:10;;;;;;;;;;;21.60;57.40;;;;;;5057798;28;20373;-77
2021/05/11 04:27:35;;;;;;;;;;;21.70;57.50;;;;;;5052541;28;20338;-77
2021/05/11 04:30:04;;;;;;;;;;;21.60;57.50;;;;;;5041568;28;19947;-77
2021/05/11 04:32:29;;;;;;;;;;;21.70;57.50;;;;;;5058283;28;19912;-77
2021/05/11 04:34:55;;;;;;;;;;;21.60;57.50;;;;;;5051880;28;19927;-78
2021/05/11 04:37:34;;;;;;;;;;;21.70;57.40;;;;;;5056073;28;19920;-77
2021/05/11 04:40:00;;;;;;;;;;;21.70;57.40;;;;;;5049698;28;19966;-77
2021/05/11 04:42:25;;;;;;;;;;;21.70;57.40;;;;;;5054382;28;20008;-77
2021/05/11 04:44:52;;;;;;;;;;;21.70;57.40;;;;;;5035449;28;20293;-78
2021/05/11 04:47:31;;;;;;;;;;;21.70;57.50;;;;;;5057503;28;20255;-78
2021/05/11 04:50:01;;;;;;;;;;;21.60;57.40;;;;;;5039391;28;19935;-79
2021/05/11 04:52:27;;;;;;;;;;;21.70;57.50;;;;;;5055463;28;19917;-77
2021/05/11 04:54:52;;;;;;;;;;;21.60;57.50;;;;;;5036142;28;19917;-77
2021/05/11 04:57:18;;;;;;;;;;;21.70;57.40;;;;;;5049641;28;20406;-78
2021/05/11 04:59:48;;;;;;;;;;;21.70;57.50;;;;;;5055757;28;19912;-77
2021/05/11 05:02:14;;;;;;;;;;;21.70;57.40;;;;;;5052574;28;19913;-78
2021/05/11 05:04:39;;;;;;;;;;;21.60;57.40;;;;;;5059882;28;19924;-77
2021/05/11 05:07:05;;;;;;;;;;;21.70;57.40;;;;;;5035247;28;19921;-77
2021/05/11 05:09:35;;;;;;;;;;;21.70;57.30;;;;;;5051757;28;19944;-77
2021/05/11 05:12:01;;;;;;;;;;;21.70;57.30;;;;;;5035953;28;19912;-77
2021/05/11 05:14:26;;;;;;;;;;;21.70;57.30;;;;;;5031685;28;19936;-78
2021/05/11 05:16:52;;;;;;;;;;;21.70;57.30;;;;;;5040300;28;20007;-77
2021/05/11 05:19:22;;;;;;;;;;;21.70;57.20;;;;;;5035701;28;20011;-77
2021/05/11 05:21:53;;;;;;;;;;;21.70;57.20;;;;;;5039362;28;19928;-76
2021/05/11 05:24:32;;;;;;;;;;;21.70;57.20;;;;;;5050949;28;19917;-77
2021/05/11 05:27:12;;;;;;;;;;;21.70;57.20;;;;;;5055518;28;19924;-77
2021/05/11 05:29:42;;;;;;;;;;;21.70;57.20;;;;;;5059378;28;19927;-77
2021/05/11 05:32:13;;;;;;;;;;;21.70;57.20;;;;;;5052449;28;20282;-77
2021/05/11 05:34:43;;;;;;;;;;;21.70;57.10;;;;;;5052413;28;19917;-78
2021/05/11 05:37:09;;;;;;;;;;;21.70;57.10;;;;;;5058322;28;20357;-77
2021/05/11 05:39:46;;;;;;;;;;;21.70;57.10;;;;;;5033610;28;19943;-77
2021/05/11 05:42:12;;;;;;;;;;;21.70;57.00;;;;;;5050432;28;19931;-78
2021/05/11 05:44:42;;;;;;;;;;;21.80;57.00;;;;;;5050674;28;19916;-77
2021/05/11 05:47:09;;;;;;;;;;;21.80;56.90;;;;;;5051200;28;19947;-77
2021/05/11 05:49:44;;;;;;;;;;;21.80;57.00;;;;;;5037294;28;20336;-77
2021/05/11 05:52:16;;;;;;;;;;;21.80;56.90;;;;;;5052239;28;19947;-77
2021/05/11 05:54:47;;;;;;;;;;;21.80;56.90;;;;;;5051756;28;19921;-77
2021/05/11 05:57:13;;;;;;;;;;;21.80;56.90;;;;;;5052809;28;19917;-77
2021/05/11 05:59:40;;;;;;;;;;;21.80;56.90;;;;;;5030743;28;19928;-74
2021/05/11 06:02:16;;;;;;;;;;;21.80;56.90;;;;;;5050367;28;20280;-79
2021/05/11 06:04:42;;;;;;;;;;;21.80;56.90;;;;;;5045628;28;20381;-79
2021/05/11 06:07:07;;;;;;;;;;;21.80;57.00;;;;;;5053031;28;19928;-77
2021/05/11 06:09:33;;;;;;;;;;;21.80;56.90;;;;;;5052907;28;19967;-78
2021/05/11 06:17:27;;;;;;;;;;;21.80;56.90;;;;;;5052214;28;20353;-78
2021/05/11 06:19:54;;;;;;;;;;;21.80;56.90;;;;;;5048673;28;20370;-78
2021/05/11 06:22:20;;;;;;;;;;;21.80;56.90;;;;;;5051783;28;19920;-77
2021/05/11 06:24:46;;;;;;;;;;;21.80;56.90;;;;;;5050865;28;19924;-77
2021/05/11 06:27:12;;;;;;;;;;;21.80;56.90;;;;;;5049445;28;20270;-78
2021/05/11 06:29:40;;;;;;;;;;;21.80;56.90;;;;;;5048092;28;20299;-78
2021/05/11 06:32:06;;;;;;;;;;;21.80;56.90;;;;;;5027224;28;20198;-78
2021/05/11 06:34:44;;;;;;;;;;;21.80;57.00;;;;;;5032508;28;19924;-78
2021/05/11 06:37:10;;;;;;;;;;;21.80;57.00;;;;;;5050750;28;19932;-78
2021/05/11 06:39:36;;;;;;;;;;;21.80;57.00;;;;;;5051887;28;19908;-79
2021/05/11 06:42:02;;;;;;;;;;;21.80;57.00;;;;;;5054841;28;19943;-78
2021/05/11 06:49:40;;;;;;;;;;;21.80;57.00;;;;;;5050252;28;19909;-78
2021/05/11 06:54:50;;;;;;;;;;;21.80;57.00;;;;;;5046199;28;20127;-77
2021/05/11 06:57:16;;;;;;;;;;;21.80;57.00;;;;;;5051843;28;19909;-78
2021/05/11 06:59:42;;;;;;;;;;;21.80;57.00;;;;;;5049130;28;19983;-78
2021/05/11 07:02:07;;;;;;;;;;;21.80;57.00;;;;;;5048913;28;20342;-78
2021/05/11 07:04:38;;;;;;;;;;;21.80;57.00;;;;;;5047496;28;19993;-77
2021/05/11 07:07:07;;;;;;;;;;;21.80;57.10;;;;;;5051224;28;19913;-77
2021/05/11 07:09:48;;;;;;;;;;;21.80;57.10;;;;;;5047851;28;20363;-78
2021/05/11 07:15:04;;;;;;;;;;;21.80;57.10;;;;;;5047225;28;19971;-77
2021/05/11 07:17:34;;;;;;;;;;;21.80;57.10;;;;;;5028769;28;19978;-78
2021/05/11 07:20:05;;;;;;;;;;;21.80;57.20;;;;;;5027820;28;21521;-78
2021/05/11 07:22:35;;;;;;;;;;;21.80;57.10;;;;;;5052328;28;19924;-77
2021/05/11 07:25:06;;;;;;;;;;;21.80;57.10;;;;;;5048753;28;20062;-77
2021/05/11 07:28:00;;;;;;;;;;;21.80;57.10;;;;;;5031657;28;19916;-78
2021/05/11 07:30:28;;;;;;;;;;;21.80;57.00;;;;;;5039738;28;20341;-78
2021/05/11 07:32:58;;;;;;;;;;;21.80;57.00;;;;;;5033463;28;19912;-76
2021/05/11 07:35:24;;;;;;;;;;;21.80;57.00;;;;;;5035335;28;19908;-76
2021/05/11 07:37:51;;;;;;;;;;;21.80;57.00;;;;;;5055171;28;19908;-75
2021/05/11 07:40:16;;;;;;;;;;;21.80;57.00;;;;;;5042314;28;19991;-76
2021/05/11 07:42:42;;;;;;;;;;;21.80;57.10;;;;;;5037034;28;19955;-77
2021/05/11 07:45:19;;;;;;;;;;;21.80;57.10;;;;;;5051659;28;19913;-76
2021/05/11 08:17:25;;;;;;;;;;;21.80;57.20;;;;;;5056559;28;20311;-79
2021/05/11 08:30:21;;;;;;;;;;;21.80;57.20;;;;;;5061138;28;20357;-77
2021/05/11 08:32:46;;;;;;;;;;;21.80;57.20;;;;;;5044352;28;19917;-77
2021/05/11 08:35:12;;;;;;;;;;;21.80;57.20;;;;;;5039715;28;19908;-78
2021/05/11 08:37:37;;;;;;;;;;;21.80;57.20;;;;;;5057066;28;20372;-77
2021/05/11 08:40:08;;;;;;;;;;;21.80;57.20;;;;;;5049282;28;19909;-77
2021/05/11 08:42:34;;;;;;;;;;;21.80;57.30;;;;;;5049007;28;19973;-77
2021/05/11 08:45:01;;;;;;;;;;;21.80;57.20;;;;;;5052886;28;19916;-77
2021/05/11 08:47:27;;;;;;;;;;;21.80;57.30;;;;;;5060859;28;19932;-77
2021/05/11 08:49:59;;;;;;;;;;;21.80;57.40;;;;;;5053124;28;19920;-78
2021/05/11 08:55:27;;;;;;;;;;;21.80;57.30;;;;;;5050779;28;20264;-76
2021/05/11 09:06:26;;;;;;;;;;;21.80;57.20;;;;;;5058590;28;19927;-77
2021/05/11 09:09:13;;;;;;;;;;;21.80;57.20;;;;;;5058844;28;19917;-76
2021/05/11 09:25:37;;;;;;;;;;;21.80;57.10;;;;;;5050309;28;20009;-77
2021/05/11 09:28:27;;;;;;;;;;;21.80;57.10;;;;;;5055786;28;19917;-77
2021/05/11 10:47:02;;;;;;;;;;;22.00;56.80;;;;;;5054533;28;19912;-77
2021/05/11 10:49:35;;;;;;;;;;;22.00;56.70;;;;;;5051457;28;19909;-75
2021/05/11 10:52:25;;;;;;;;;;;22.00;56.70;;;;;;5053289;28;19956;-75
2021/05/11 10:55:12;;;;;;;;;;;22.00;56.70;;;;;;5034671;28;19931;-74
2021/05/11 10:58:02;;;;;;;;;;;22.00;56.70;;;;;;5049995;28;19913;-76
2021/05/11 11:00:45;;;;;;;;;;;22.10;56.70;;;;;;5037778;28;19908;-75
2021/05/11 11:03:17;;;;;;;;;;;22.10;56.70;;;;;;5034457;28;19956;-76
2021/05/11 11:05:45;;;;;;;;;;;22.10;56.70;;;;;;5035704;28;19943;-74
2021/05/11 11:08:26;;;;;;;;;;;22.10;56.70;;;;;;5051418;28;19908;-74
2021/05/11 11:11:09;;;;;;;;;;;22.10;56.70;;;;;;5045786;28;19917;-76
2021/05/11 11:13:40;;;;;;;;;;;22.10;56.60;;;;;;5038924;28;19999;-75
2021/05/11 11:16:06;;;;;;;;;;;22.10;56.60;;;;;;5060322;28;20389;-74
2021/05/11 11:18:37;;;;;;;;;;;22.10;56.60;;;;;;5037005;28;19959;-76
2021/05/11 11:24:04;;;;;;;;;;;22.10;56.50;;;;;;5057569;28;20417;-75
2021/05/11 11:26:39;;;;;;;;;;;22.20;56.50;;;;;;5053425;28;19921;-81
2021/05/11 11:29:12;;;;;;;;;;;22.20;56.40;;;;;;5038762;28;20258;-75
2021/05/11 11:31:43;;;;;;;;;;;22.20;56.40;;;;;;5036200;28;19909;-75
2021/05/11 11:34:35;;;;;;;;;;;22.20;56.40;;;;;;5037801;28;19948;-78
2021/05/11 11:37:11;;;;;;;;;;;22.20;56.40;;;;;;5049697;28;20245;-76
2021/05/11 11:39:47;;;;;;;;;;;22.20;56.40;;;;;;5035800;28;19916;-75
2021/05/11 11:42:18;;;;;;;;;;;22.20;56.40;;;;;;5051266;28;19923;-74
2021/05/11 11:45:00;;;;;;;;;;;22.20;56.30;;;;;;5050976;28;19917;-74
2021/05/11 11:47:30;;;;;;;;;;;22.20;56.30;;;;;;5039117;28;19919;-74
2021/05/11 11:49:59;;;;;;;;;;;22.20;56.30;;;;;;5036401;28;20354;-74
2021/05/11 12:00:25;;;;;;;;;;;22.20;56.30;;;;;;5054154;28;19983;-75
2021/05/11 12:03:14;;;;;;;;;;;22.20;56.50;;;;;;5056494;28;19962;-74
2021/05/11 12:05:42;;;;;;;;;;;22.10;56.50;;;;;;5049162;28;20352;-75
2021/05/11 12:11:05;;;;;;;;;;;22.10;56.50;;;;;;5051989;28;20362;-76
2021/05/11 12:13:37;;;;;;;;;;;22.20;56.50;;;;;;5036549;28;19920;-74
2021/05/11 12:16:22;;;;;;;;;;;22.20;56.50;;;;;;5060665;28;19916;-75
2021/05/11 12:21:30;;;;;;;;;;;22.20;56.40;;;;;;5056675;28;19908;-75
2021/05/11 12:24:15;;;;;;;;;;;22.20;56.30;;;;;;5055350;28;19916;-75
2021/05/11 12:26:42;;;;;;;;;;;22.30;56.20;;;;;;5056046;28;19931;-75
2021/05/11 12:29:15;;;;;;;;;;;22.30;56.10;;;;;;5037880;28;19908;-75
2021/05/11 12:31:53;;;;;;;;;;;22.30;56.00;;;;;;5053093;28;20007;-75
2021/05/11 12:34:26;;;;;;;;;;;22.30;56.00;;;;;;5030629;28;20262;-79
2021/05/11 12:37:01;;;;;;;;;;;22.30;55.90;;;;;;5039573;28;20373;-75
2021/05/11 12:39:49;;;;;;;;;;;22.30;55.90;;;;;;5035434;28;19915;-75
2021/05/11 12:42:24;;;;;;;;;;;22.30;55.90;;;;;;5028736;28;19916;-75
2021/05/11 12:45:06;;;;;;;;;;;22.30;56.00;;;;;;5054462;28;20353;-76
2021/05/11 12:47:59;;;;;;;;;;;22.30;55.90;;;;;;5050357;28;19924;-75
2021/05/11 12:50:27;;;;;;;;;;;22.40;55.90;;;;;;5027256;28;20350;-75
2021/05/11 12:53:05;;;;;;;;;;;22.40;55.80;;;;;;5050716;28;20763;-76
2021/05/11 12:55:34;;;;;;;;;;;22.30;55.90;;;;;;5049014;28;19928;-75
2021/05/11 12:58:19;;;;;;;;;;;22.30;55.90;;;;;;5036706;28;19923;-76
2021/05/11 13:00:48;;;;;;;;;;;22.30;55.90;;;;;;5046224;28;19962;-76
2021/05/11 13:03:35;;;;;;;;;;;22.40;55.90;;;;;;5054076;28;20381;-76
2021/05/11 13:17:05;;;;;;;;;;;22.30;55.90;;;;;;5051895;28;19909;-76
2021/05/11 13:27:50;;;;;;;;;;;22.30;56.10;;;;;;5052406;28;19913;-77
2021/05/11 13:35:13;;;;;;;;;;;22.30;56.10;;;;;;5052393;28;19908;-77
2021/05/11 13:37:39;;;;;;;;;;;22.30;56.10;;;;;;5053541;28;19919;-77
2021/05/11 13:40:05;;;;;;;;;;;22.30;56.10;;;;;;5047045;28;19912;-78
2021/05/11 13:42:31;;;;;;;;;;;22.30;56.00;;;;;;5053236;28;20000;-80
2021/05/11 13:44:57;;;;;;;;;;;22.30;56.00;;;;;;5051439;28;20007;-77
2021/05/11 13:47:22;;;;;;;;;;;22.30;56.10;;;;;;5026348;28;19913;-78
2021/05/11 13:49:54;;;;;;;;;;;22.30;56.20;;;;;;5032635;28;19912;-78
2021/05/11 13:52:19;;;;;;;;;;;22.30;56.30;;;;;;5057794;28;19917;-77
2021/05/11 13:54:48;;;;;;;;;;;22.30;56.40;;;;;;5057398;28;19970;-76
2021/05/11 14:03:01;;;;;;;;;;;22.20;56.80;;;;;;5052828;28;19943;-77
2021/05/11 14:05:32;;;;;;;;;;;22.20;56.80;;;;;;5035542;28;19920;-78
2021/05/11 14:08:17;;;;;;;;;;;22.20;57.00;;;;;;5036956;28;19995;-78
2021/05/11 14:10:48;;;;;;;;;;;22.20;57.00;;;;;;5051506;28;19961;-79
2021/05/11 14:13:13;;;;;;;;;;;22.20;57.10;;;;;;5053118;28;19908;-80
2021/05/11 14:15:44;;;;;;;;;;;22.20;57.10;;;;;;5037592;28;19921;-78
2021/05/11 14:18:09;;;;;;;;;;;22.20;57.10;;;;;;5035810;28;19912;-80
2021/05/11 14:20:35;;;;;;;;;;;22.20;57.00;;;;;;5052799;28;20334;-77
2021/05/11 14:23:01;;;;;;;;;;;22.20;57.10;;;;;;5051482;28;19921;-78
2021/05/11 14:25:29;;;;;;;;;;;22.20;57.00;;;;;;5053057;28;20279;-76
2021/05/11 14:27:54;;;;;;;;;;;22.30;57.00;;;;;;5051390;28;20328;-77
2021/05/11 14:30:20;;;;;;;;;;;22.20;56.90;;;;;;5040306;28;19921;-77
2021/05/11 14:32:46;;;;;;;;;;;22.30;56.90;;;;;;5032327;28;19916;-80
2021/05/11 14:35:11;;;;;;;;;;;22.30;56.90;;;;;;5047656;28;19916;-77
2021/05/11 14:37:37;;;;;;;;;;;22.30;56.80;;;;;;5049086;28;20431;-76
2021/05/11 14:40:02;;;;;;;;;;;22.40;56.80;;;;;;5050750;28;19909;-77
2021/05/11 14:42:28;;;;;;;;;;;22.30;56.70;;;;;;5056668;28;19909;-78
2021/05/11 14:44:54;;;;;;;;;;;22.40;56.70;;;;;;5032784;28;19940;-76
2021/05/11 14:47:20;;;;;;;;;;;22.40;56.80;;;;;;5029281;28;20268;-76
2021/05/11 14:49:45;;;;;;;;;;;22.40;56.70;;;;;;5032095;28;19915;-78
2021/05/11 14:52:13;;;;;;;;;;;22.30;56.90;;;;;;5035352;28;19983;-79
2021/05/11 14:54:39;;;;;;;;;;;22.30;56.90;;;;;;5031005;28;20319;-76
2021/05/11 14:57:05;;;;;;;;;;;22.30;57.10;;;;;;5042132;28;19928;-78
2021/05/11 14:59:30;;;;;;;;;;;22.20;57.10;;;;;;5061250;28;20003;-76
2021/05/11 15:01:56;;;;;;;;;;;22.20;57.20;;;;;;5035441;28;20015;-78
2021/05/11 15:04:21;;;;;;;;;;;22.20;57.30;;;;;;5055203;28;20274;-78
2021/05/11 15:06:47;;;;;;;;;;;22.20;57.30;;;;;;5035243;28;19925;-76
2021/05/11 15:09:12;;;;;;;;;;;22.20;57.40;;;;;;5062633;28;20233;-76
2021/05/11 15:11:38;;;;;;;;;;;22.20;57.50;;;;;;5053999;28;20320;-76
2021/05/11 15:14:04;;;;;;;;;;;22.20;57.50;;;;;;5031388;28;20707;-75
2021/05/11 15:16:34;;;;;;;;;;;22.20;57.50;;;;;;5063795;28;19924;-77
2021/05/11 15:18:59;;;;;;;;;;;22.20;57.50;;;;;;5057856;28;20038;-76
2021/05/11 15:21:25;;;;;;;;;;;22.20;57.60;;;;;;5034745;28;19999;-75
2021/05/11 15:23:51;;;;;;;;;;;22.20;57.60;;;;;;5054037;28;20094;-75
2021/05/11 15:26:17;;;;;;;;;;;22.10;57.50;;;;;;5049032;28;20228;-75
2021/05/11 15:28:43;;;;;;;;;;;22.10;57.60;;;;;;5044958;28;19915;-75
2021/05/11 15:31:09;;;;;;;;;;;22.10;57.70;;;;;;5054373;28;19920;-75
2021/05/11 15:33:34;;;;;;;;;;;22.10;57.70;;;;;;5042072;28;19908;-75
2021/05/11 15:36:00;;;;;;;;;;;22.10;57.60;;;;;;5037879;28;20003;-74
2021/05/11 15:38:31;;;;;;;;;;;22.10;57.60;;;;;;5053647;28;19909;-74
2021/05/11 15:40:57;;;;;;;;;;;22.20;57.50;;;;;;5056766;28;20299;-74
2021/05/11 15:43:23;;;;;;;;;;;22.20;57.40;;;;;;5035301;28;20384;-75
2021/05/11 15:45:48;;;;;;;;;;;22.20;57.50;;;;;;5039064;28;20003;-75
2021/05/11 15:48:16;;;;;;;;;;;22.20;57.50;;;;;;5053989;28;20024;-75
2021/05/11 15:50:46;;;;;;;;;;;22.20;57.60;;;;;;5056533;28;20354;-75
2021/05/11 15:53:16;;;;;;;;;;;22.20;57.60;;;;;;5032202;28;19928;-74
2021/05/11 15:55:43;;;;;;;;;;;22.10;57.60;;;;;;5054794;28;19921;-76
2021/05/11 15:58:10;;;;;;;;;;;22.10;57.70;;;;;;5052262;28;19921;-76
2021/05/11 16:00:36;;;;;;;;;;;22.20;57.60;;;;;;5033296;28;19908;-77
2021/05/11 16:03:05;;;;;;;;;;;22.10;57.80;;;;;;5035617;28;20282;-77
2021/05/11 16:05:34;;;;;;;;;;;22.10;57.70;;;;;;5054542;28;20333;-76
2021/05/11 16:08:00;;;;;;;;;;;22.10;57.70;;;;;;5060908;28;19913;-76
2021/05/11 16:10:28;;;;;;;;;;;22.10;57.80;;;;;;5036254;28;19936;-76
2021/05/11 16:12:54;;;;;;;;;;;22.10;57.80;;;;;;5043033;28;19994;-77
2021/05/11 16:15:19;;;;;;;;;;;22.10;57.80;;;;;;5037140;28;19921;-76
2021/05/11 16:17:45;;;;;;;;;;;22.10;57.90;;;;;;5034847;28;20238;-76
2021/05/11 16:20:11;;;;;;;;;;;22.10;57.90;;;;;;5035630;28;19932;-77
2021/05/11 16:22:37;;;;;;;;;;;22.00;58.00;;;;;;5032580;28;20342;-76
2021/05/11 16:25:07;;;;;;;;;;;22.00;58.00;;;;;;5028310;28;19921;-77
2021/05/11 16:27:32;;;;;;;;;;;22.00;58.10;;;;;;5041634;28;19920;-77
2021/05/11 16:29:58;;;;;;;;;;;22.00;58.10;;;;;;5033302;28;19909;-76
2021/05/11 16:32:28;;;;;;;;;;;22.00;58.10;;;;;;5032371;28;19940;-73
2021/05/11 16:34:59;;;;;;;;;;;22.00;58.20;;;;;;5054556;28;19913;-75
2021/05/11 16:37:24;;;;;;;;;;;22.00;58.20;;;;;;5037187;28;19909;-74
2021/05/11 16:39:53;;;;;;;;;;;22.00;58.20;;;;;;5038022;28;19924;-73
2021/05/11 16:42:18;;;;;;;;;;;22.00;58.30;;;;;;5031136;28;19920;-74
2021/05/11 16:44:44;;;;;;;;;;;22.00;58.20;;;;;;5034042;28;19913;-74
2021/05/11 16:47:09;;;;;;;;;;;21.90;58.40;;;;;;5035255;28;19924;-74
2021/05/11 16:49:36;;;;;;;;;;;22.00;58.40;;;;;;5038724;28;19909;-73
2021/05/11 16:52:02;;;;;;;;;;;22.00;58.40;;;;;;5031786;28;20334;-73
2021/05/11 16:54:28;;;;;;;;;;;21.90;58.40;;;;;;5034182;28;20052;-75
2021/05/11 16:56:53;;;;;;;;;;;21.90;58.50;;;;;;5030774;28;19927;-72
2021/05/11 16:59:19;;;;;;;;;;;21.90;58.60;;;;;;5033856;28;20011;-73
2021/05/11 17:01:45;;;;;;;;;;;21.90;58.50;;;;;;5036131;28;19925;-74
2021/05/11 17:04:11;;;;;;;;;;;21.90;58.60;;;;;;5031155;28;20289;-73
2021/05/11 17:06:41;;;;;;;;;;;21.90;58.60;;;;;;5033765;28;19928;-73
2021/05/11 17:09:12;;;;;;;;;;;21.90;58.60;;;;;;5034721;28;19932;-76
2021/05/11 17:11:38;;;;;;;;;;;21.90;58.60;;;;;;5040133;28;19910;-76
2021/05/11 17:14:07;;;;;;;;;;;21.90;58.80;;;;;;5033472;28;20358;-72
2021/05/11 17:16:33;;;;;;;;;;;21.90;58.70;;;;;;5034102;28;19924;-73
2021/05/11 17:18:59;;;;;;;;;;;21.90;58.70;;;;;;5033517;28;20350;-75
2021/05/11 17:21:27;;;;;;;;;;;21.90;58.70;;;;;;5035216;28;20051;-74
2021/05/11 17:23:53;;;;;;;;;;;21.90;58.70;;;;;;5030257;28;19931;-73
2021/05/11 17:26:18;;;;;;;;;;;21.90;58.70;;;;;;5031257;28;19913;-73
2021/05/11 17:28:44;;;;;;;;;;;21.80;58.80;;;;;;5035615;28;19948;-73
2021/05/11 17:31:10;;;;;;;;;;;21.90;58.80;;;;;;5033176;28;19998;-75
2021/05/11 17:33:36;;;;;;;;;;;21.80;58.80;;;;;;5038712;28;20338;-73
2021/05/11 17:36:02;;;;;;;;;;;21.90;58.80;;;;;;5035920;28;19952;-73
2021/05/11 17:38:31;;;;;;;;;;;21.80;58.80;;;;;;5031616;28;19941;-74
2021/05/11 17:40:57;;;;;;;;;;;21.80;58.80;;;;;;5036121;28;20317;-74
2021/05/11 17:43:23;;;;;;;;;;;21.80;58.80;;;;;;5036467;28;20380;-73
2021/05/11 17:45:53;;;;;;;;;;;21.80;58.90;;;;;;5029306;28;19925;-75
2021/05/11 17:48:30;;;;;;;;;;;21.80;58.80;;;;;;5029694;28;19915;-74
2021/05/11 17:50:56;;;;;;;;;;;21.80;58.90;;;;;;5035891;28;19916;-76
2021/05/11 17:53:22;;;;;;;;;;;21.80;58.90;;;;;;5033715;28;19912;-74
2021/05/11 17:55:48;;;;;;;;;;;21.80;58.90;;;;;;5027726;28;20458;-77
2021/05/11 17:58:18;;;;;;;;;;;21.80;58.90;;;;;;5036618;28;19916;-75
2021/05/11 18:00:49;;;;;;;;;;;21.80;58.90;;;;;;5036070;28;19921;-75
2021/05/11 18:03:19;;;;;;;;;;;21.80;58.90;;;;;;5028068;28;19913;-75
2021/05/11 18:05:50;;;;;;;;;;;21.80;58.90;;;;;;5034072;28;20364;-74
2021/05/11 18:08:17;;;;;;;;;;;21.80;58.90;;;;;;5040148;28;19909;-75
2021/05/11 18:10:47;;;;;;;;;;;21.80;58.90;;;;;;5030503;28;19948;-75
2021/05/11 18:13:12;;;;;;;;;;;21.80;59.00;;;;;;5041312;28;19928;-74
2021/05/11 18:15:38;;;;;;;;;;;21.80;59.00;;;;;;5032714;28;19909;-74
2021/05/11 18:18:03;;;;;;;;;;;21.80;59.10;;;;;;5037955;28;20004;-75
2021/05/11 18:20:29;;;;;;;;;;;21.80;59.10;;;;;;5030592;28;20360;-74
2021/05/11 18:22:59;;;;;;;;;;;21.80;59.00;;;;;;5027786;28;21808;-75
2021/05/11 18:25:28;;;;;;;;;;;21.70;59.10;;;;;;5036902;28;19936;-75
2021/05/11 18:27:54;;;;;;;;;;;21.80;59.10;;;;;;5035406;28;19932;-75
2021/05/11 18:30:24;;;;;;;;;;;21.80;59.10;;;;;;5035902;28;20388;-74
2021/05/11 18:32:53;;;;;;;;;;;21.80;59.10;;;;;;5047065;28;19949;-75
2021/05/11 18:35:23;;;;;;;;;;;21.80;59.10;;;;;;5033289;28;20000;-74
2021/05/11 18:38:10;;;;;;;;;;;21.80;59.10;;;;;;5030873;28;19925;-75
2021/05/11 18:40:35;;;;;;;;;;;21.80;59.10;;;;;;5035045;28;19909;-75
2021/05/11 18:43:06;;;;;;;;;;;21.70;59.10;;;;;;5026906;28;20004;-75
2021/05/11 18:45:34;;;;;;;;;;;21.70;59.10;;;;;;5032636;28;19913;-75
2021/05/11 18:48:05;;;;;;;;;;;21.70;59.20;;;;;;5031125;28;19952;-74
2021/05/11 18:50:37;;;;;;;;;;;21.70;59.10;;;;;;5036008;28;21392;-75